Time;durP1;ratioP1;P1;durP2;ratioP2;P2;SDS_P1;SDS_P2;PMS_P1;PMS_P2;Temp;Humidity;BMP_temperature;BMP_pressure;BME280_temperature;BME280_humidity;BME280_pressure;Samples;Min_cycle;Max_cycle;Signal;HPM_P1;HPM_P2
2023/04/16 00:00:12;;;;;;;19.40;9.20;;;;;;;11.65;100.00;99336.63;5135787;27;20031;-74
2023/04/16 00:02:38;;;;;;;17.95;8.35;;;;;;;11.37;100.00;99325.94;5135491;27;20038;-74
2023/04/16 00:05:03;;;;;;;19.27;8.68;;;;;;;11.58;100.00;99324.22;5115867;27;20076;-74
2023/04/16 00:07:29;;;;;;;18.88;9.10;;;;;;;11.53;100.00;99303.25;5116287;27;20042;-74
2023/04/16 00:09:54;;;;;;;18.88;8.60;;;;;;;11.39;100.00;99227.47;5135106;27;20035;-74
2023/04/16 00:12:20;;;;;;;20.55;8.55;;;;;;;11.87;100.00;99257.59;5135499;27;20164;-75
2023/04/16 00:14:46;;;;;;;19.27;9.13;;;;;;;12.04;100.00;99244.97;5115860;27;20027;-74
2023/04/16 00:17:11;;;;;;;15.75;9.85;;;;;;;11.96;100.00;99234.28;5135084;27;20039;-75
2023/04/16 00:19:37;;;;;;;19.33;9.32;;;;;;;11.63;100.00;99179.75;5134806;27;20034;-75
2023/04/16 00:22:03;;;;;;;18.85;8.80;;;;;;;11.89;100.00;99228.63;5131762;27;20171;-74
2023/04/16 00:24:28;;;;;;;17.30;8.25;;;;;;;11.59;100.00;99153.59;5134332;27;20067;-75
2023/04/16 00:26:54;;;;;;;14.32;8.30;;;;;;;11.73;100.00;99212.41;5134248;27;20055;-75
2023/04/16 00:29:20;;;;;;;15.20;8.65;;;;;;;11.35;100.00;99155.53;5115954;27;20049;-75
2023/04/16 00:31:46;;;;;;;16.02;8.63;;;;;;;11.80;100.00;99190.88;5134664;27;20520;-75
2023/04/16 00:34:12;;;;;;;21.05;8.52;;;;;;;11.39;100.00;99109.59;5133525;27;20046;-74
2023/04/16 00:36:37;;;;;;;17.40;8.93;;;;;;;11.38;100.00;99110.47;5115932;27;20492;-74
2023/04/16 00:39:02;;;;;;;18.00;9.43;;;;;;;11.66;100.00;99132.09;5134947;27;20437;-74
2023/04/16 00:41:28;;;;;;;20.75;9.57;;;;;;;11.36;100.00;99067.31;5134626;27;20315;-74
2023/04/16 00:43:53;;;;;;;21.52;9.25;;;;;;;11.81;100.00;99135.66;5115930;27;20091;-74
2023/04/16 00:46:22;;;;;;;17.38;9.35;;;;;;;11.18;100.00;99029.97;5133976;27;20031;-75
2023/04/16 00:48:48;;;;;;;18.33;9.40;;;;;;;11.62;100.00;99110.19;5134623;27;20113;-74
2023/04/16 00:51:14;;;;;;;16.17;8.90;;;;;;;11.66;100.00;99106.66;5134507;27;20095;-74
2023/04/16 00:53:40;;;;;;;18.05;9.55;;;;;;;11.79;100.00;99092.44;5115638;27;20043;-74
2023/04/16 00:56:06;;;;;;;18.30;9.35;;;;;;;11.59;100.00;99049.22;5133833;27;20479;-75
2023/04/16 00:58:33;;;;;;;18.95;9.40;;;;;;;11.58;100.00;99083.25;5133785;27;20030;-74
2023/04/16 01:00:59;;;;;;;18.42;9.32;;;;;;;11.60;100.00;99083.16;5133881;27;20057;-74
2023/04/16 01:03:36;;;;;;;14.95;8.80;;;;;;;11.47;100.00;99060.00;5115509;27;20401;-75
2023/04/16 01:06:01;;;;;;;16.80;8.90;;;;;;;11.32;100.00;99004.72;5114762;27;20485;-75
2023/04/16 01:08:27;;;;;;;17.95;8.88;;;;;;;11.26;100.00;99015.19;5133783;27;20039;-75
2023/04/16 01:10:52;;;;;;;15.63;8.82;;;;;;;11.52;100.00;99050.44;5114927;27;20019;-75
2023/04/16 01:13:17;;;;;;;19.20;9.00;;;;;;;10.98;100.00;98946.97;5134232;27;20042;-75
2023/04/16 01:15:43;;;;;;;20.48;9.00;;;;;;;11.56;100.00;99046.03;5115585;27;20450;-74
2023/04/16 01:18:15;;;;;;;17.20;9.00;;;;;;;11.50;100.00;99020.84;5133805;27;20069;-75
2023/04/16 01:20:41;;;;;;;18.42;9.05;;;;;;;11.58;100.00;99019.59;5115422;27;20041;-74
2023/04/16 01:23:06;;;;;;;15.48;8.77;;;;;;;11.52;100.00;99012.25;5133052;27;20473;-75
2023/04/16 01:25:32;;;;;;;19.52;9.85;;;;;;;11.34;100.00;99020.75;5133328;27;20042;-75
2023/04/16 01:27:58;;;;;;;22.00;9.30;;;;;;;11.26;100.00;98997.38;5133371;27;20020;-75
2023/04/16 01:30:24;;;;;;;19.08;9.55;;;;;;;11.38;100.00;98996.81;5115391;27;20086;-74
2023/04/16 01:32:49;;;;;;;16.73;9.45;;;;;;;11.10;100.00;98920.97;5133306;27;20113;-75
2023/04/16 01:35:16;;;;;;;16.02;9.10;;;;;;;11.15;100.00;98948.75;5133379;27;20042;-75
2023/04/16 01:37:42;;;;;;;21.27;9.52;;;;;;;11.06;100.00;98916.09;5114867;27;20039;-75
2023/04/16 01:40:09;;;;;;;18.52;9.00;;;;;;;11.62;100.00;98964.28;5115061;27;20019;-75
2023/04/16 01:42:34;;;;;;;15.43;8.48;;;;;;;11.60;100.00;98961.81;5114309;27;20031;-74
2023/04/16 01:45:00;;;;;;;15.93;8.88;;;;;;;11.52;100.00;98957.97;5132665;27;20088;-75
2023/04/16 01:47:25;;;;;;;17.52;8.88;;;;;;;10.86;100.00;98860.25;5114731;27;20027;-72
2023/04/16 01:49:51;;;;;;;17.02;9.05;;;;;;;11.33;100.00;98963.94;5132620;27;20105;-75
2023/04/16 01:52:16;;;;;;;16.10;9.25;;;;;;;11.59;100.00;98964.44;5114690;27;20023;-74
2023/04/16 01:54:42;;;;;;;17.67;8.45;;;;;;;11.60;100.00;98961.81;5133029;27;20098;-74
2023/04/16 01:57:07;;;;;;;16.67;8.73;;;;;;;11.37;100.00;98910.38;5134005;27;20023;-75
2023/04/16 01:59:33;;;;;;;20.42;8.60;;;;;;;11.42;100.00;98962.69;5114511;27;20080;-74
2023/04/16 02:02:06;;;;;;;17.65;8.98;;;;;;;10.94;100.00;98919.19;5114067;27;20027;-74
2023/04/16 02:04:31;;;;;;;13.93;8.52;;;;;;;11.36;100.00;98962.97;5132967;27;20554;-75
2023/04/16 02:06:57;;;;;;;16.35;9.45;;;;;;;11.28;100.00;98965.91;5133207;27;20031;-75
2023/04/16 02:09:23;;;;;;;18.58;9.70;;;;;;;11.03;100.00;98913.72;5114752;27;20060;-74
2023/04/16 02:11:48;;;;;;;18.52;9.30;;;;;;;10.82;100.00;98856.22;5133417;27;20027;-75
2023/04/16 02:14:14;;;;;;;15.25;9.13;;;;;;;11.67;100.00;98944.53;5133286;27;20103;-74
2023/04/16 02:16:39;;;;;;;20.33;9.30;;;;;;;11.75;100.00;98940.72;5114252;27;20065;-74
2023/04/16 02:19:05;;;;;;;22.15;9.70;;;;;;;11.76;100.00;98931.38;5114796;27;20142;-75
2023/04/16 02:21:30;;;;;;;15.27;9.13;;;;;;;11.65;100.00;98933.56;5132579;27;20052;-74
2023/04/16 02:23:56;;;;;;;16.40;9.27;;;;;;;11.44;100.00;98926.97;5131996;27;20035;-75
2023/04/16 02:26:21;;;;;;;18.40;9.75;;;;;;;11.08;100.00;98832.91;5114092;27;20031;-73
2023/04/16 02:28:47;;;;;;;19.30;9.98;;;;;;;11.70;100.00;98906.22;5132388;27;20481;-75
2023/04/16 02:31:12;;;;;;;17.63;8.98;;;;;;;11.35;100.00;98860.38;5114160;27;20118;-74
2023/04/16 02:33:38;;;;;;;19.88;9.77;;;;;;;11.52;100.00;98932.53;5132191;27;20420;-74
2023/04/16 02:36:03;;;;;;;18.90;10.40;;;;;;;11.64;100.00;98912.41;5113215;27;20041;-74
2023/04/16 02:38:29;;;;;;;17.80;9.75;;;;;;;11.30;100.00;98838.59;5139220;27;20042;-74
2023/04/16 02:40:54;;;;;;;18.20;9.75;;;;;;;11.46;100.00;98904.84;5131616;27;20042;-74
2023/04/16 02:43:20;;;;;;;17.30;9.00;;;;;;;11.54;100.00;98915.47;5113357;27;20038;-74
2023/04/16 02:45:45;;;;;;;18.55;9.55;;;;;;;11.67;100.00;98921.63;5131802;27;20118;-74
2023/04/16 02:48:10;;;;;;;16.65;9.02;;;;;;;11.33;100.00;98830.81;5132432;27;20027;-75
2023/04/16 02:50:36;;;;;;;15.63;9.23;;;;;;;11.30;100.00;98808.09;5114372;28;20514;-75
2023/04/16 02:53:02;;;;;;;19.60;9.65;;;;;;;11.89;100.00;98884.84;5113387;27;20119;-74
2023/04/16 02:55:29;;;;;;;17.42;9.30;;;;;;;11.74;100.00;98883.06;5131634;27;20047;-74
2023/04/16 02:57:55;;;;;;;15.02;9.30;;;;;;;11.64;100.00;98823.31;5113764;28;20027;-74
2023/04/16 03:00:20;;;;;;;19.98;9.93;;;;;;;11.88;100.00;98873.00;5131612;27;20122;-74
2023/04/16 03:02:46;;;;;;;19.20;10.27;;;;;;;11.78;100.00;98883.72;5131836;27;20023;-75
2023/04/16 03:05:11;;;;;;;19.33;10.43;;;;;;;11.30;100.00;98811.44;5113532;28;20053;-74
2023/04/16 03:07:38;;;;;;;20.77;10.10;;;;;;;11.81;100.00;98866.56;5113141;28;20023;-74
2023/04/16 03:10:04;;;;;;;21.83;9.77;;;;;;;12.04;100.00;98848.38;5132201;28;20094;-74
2023/04/16 03:12:30;;;;;;;21.33;9.77;;;;;;;11.85;100.00;98850.25;5132082;28;20946;-74
2023/04/16 03:14:55;;;;;;;20.52;9.90;;;;;;;11.57;100.00;98803.34;5132247;28;20023;-74
2023/04/16 03:17:21;;;;;;;18.13;10.02;;;;;;;11.91;100.00;98838.91;5131412;28;20119;-75
2023/04/16 03:19:46;;;;;;;17.58;10.77;;;;;;;11.99;100.00;98814.69;5113274;28;20063;-74
2023/04/16 03:22:11;;;;;;;20.88;10.27;;;;;;;12.26;100.00;98821.78;5131157;28;20035;-73
2023/04/16 03:24:37;;;;;;;19.08;10.82;;;;;;;12.22;100.00;98799.91;5113287;28;20480;-73
2023/04/16 03:27:02;;;;;;;19.70;11.10;;;;;;;12.34;100.00;98802.59;5113963;27;20101;-74
2023/04/16 03:29:28;;;;;;;20.83;11.88;;;;;;;12.40;100.00;98781.09;5117443;27;20535;-74
2023/04/16 03:31:53;;;;;;;22.05;11.63;;;;;;;12.10;100.00;98745.34;5137411;27;20492;-74
2023/04/16 03:34:19;;;;;;;21.33;11.95;;;;;;;12.13;100.00;98750.28;5135799;27;20031;-74
2023/04/16 03:36:44;;;;;;;33.55;14.10;;;;;;;12.51;100.00;98794.06;5129060;27;20118;-74
2023/04/16 03:39:10;;;;;;;25.55;13.55;;;;;;;12.56;100.00;98776.75;5155820;27;20107;-73
2023/04/16 03:41:35;;;;;;;23.88;12.82;;;;;;;12.28;100.00;98677.28;5122988;27;20038;-74
2023/04/16 03:44:01;;;;;;;26.80;13.60;;;;;;;12.49;100.00;98744.88;5116886;27;20030;-75
2023/04/16 03:46:26;;;;;;;21.70;13.68;;;;;;;12.74;100.00;98753.63;5117603;27;20046;-75
2023/04/16 03:48:51;;;;;;;25.63;14.25;;;;;;;12.40;100.00;98694.44;5134716;27;20034;-75
2023/04/16 03:51:17;;;;;;;27.75;13.18;;;;;;;12.52;100.00;98699.66;5117930;27;20073;-74
2023/04/16 03:53:42;;;;;;;28.58;13.88;;;;;;;12.75;100.00;98742.53;5116791;27;20051;-75
2023/04/16 03:56:08;;;;;;;25.08;12.55;;;;;;;12.87;100.00;98771.63;5141899;27;20034;-74
2023/04/16 03:58:33;;;;;;;28.33;13.45;;;;;;;13.04;100.00;98768.94;5155625;27;20034;-75
2023/04/16 04:00:58;;;;;;;28.13;13.68;;;;;;;13.21;100.00;98755.22;5143568;27;20095;-74
2023/04/16 04:03:25;;;;;;;26.95;13.95;;;;;;;13.25;100.00;98757.50;5135467;27;20033;-75
2023/04/16 04:05:50;;;;;;;31.02;14.25;;;;;;;12.89;100.00;98716.25;5116860;27;20114;-74
2023/04/16 04:08:15;;;;;;;24.25;14.32;;;;;;;13.10;100.00;98743.09;5133773;27;20054;-74
2023/04/16 04:10:41;;;;;;;29.17;15.23;;;;;;;13.23;100.00;98759.31;5134987;27;20122;-74
2023/04/16 04:13:06;;;;;;;27.48;15.40;;;;;;;12.67;100.00;98696.25;5134881;27;20039;-75
2023/04/16 04:15:32;;;;;;;28.50;14.75;;;;;;;13.23;100.00;98751.66;5117072;27;20114;-75
2023/04/16 04:17:58;;;;;;;29.00;15.48;;;;;;;13.10;100.00;98744.81;5116127;27;20472;-75
2023/04/16 04:20:23;;;;;;;26.83;15.45;;;;;;;13.27;100.00;98737.00;5135296;27;20064;-75
2023/04/16 04:22:49;;;;;;;26.15;15.35;;;;;;;13.28;100.00;98761.59;5116612;27;20027;-75
2023/04/16 04:25:15;;;;;;;28.80;15.98;;;;;;;13.41;100.00;98742.91;5109147;28;20051;-75
2023/04/16 04:27:41;;;;;;;36.03;16.02;;;;;;;13.43;100.00;98768.38;5115395;27;20028;-74
2023/04/16 04:30:07;;;;;;;31.65;16.42;;;;;;;13.43;100.00;98736.00;5134600;27;20027;-75
2023/04/16 04:32:32;;;;;;;31.17;15.98;;;;;;;13.23;100.00;98708.25;5115804;27;20027;-73
2023/04/16 04:35:00;;;;;;;31.70;16.58;;;;;;;13.38;100.00;98709.94;5116453;27;20027;-75
2023/04/16 04:37:26;;;;;;;32.58;17.95;;;;;;;13.42;100.00;98744.56;5133916;27;20110;-74
2023/04/16 04:39:51;;;;;;;31.48;17.42;;;;;;;13.66;100.00;98747.38;5122731;27;20035;-74
2023/04/16 04:42:17;;;;;;;36.55;18.80;;;;;;;13.66;100.00;98753.31;5133780;27;20109;-75
2023/04/16 04:44:43;;;;;;;33.00;18.40;;;;;;;13.42;100.00;98716.50;5116300;27;20047;-71
2023/04/16 04:47:08;;;;;;;35.85;19.25;;;;;;;13.15;100.00;98666.28;5115436;27;20063;-73
2023/04/16 04:49:34;;;;;;;35.67;19.35;;;;;;;13.56;100.00;98751.41;5116131;27;20031;-73
2023/04/16 04:52:00;;;;;;;33.38;19.15;;;;;;;13.57;100.00;98751.31;5115448;27;20042;-74
2023/04/16 04:54:27;;;;;;;36.03;18.52;;;;;;;13.32;100.00;98689.88;5117923;27;20044;-73
2023/04/16 04:56:52;;;;;;;34.67;18.35;;;;;;;13.07;100.00;98666.72;5118560;27;20046;-72
2023/04/16 04:59:19;;;;;;;31.30;17.98;;;;;;;13.14;100.00;98667.16;5133385;27;20106;-72
2023/04/16 05:01:45;;;;;;;38.95;17.60;;;;;;;13.56;100.00;98782.88;5111361;27;20076;-73
2023/04/16 05:04:10;;;;;;;34.20;18.85;;;;;;;13.60;100.00;98763.91;5116308;27;20623;-72
2023/04/16 05:06:36;;;;;;;43.15;20.70;;;;;;;13.23;100.00;98731.22;5134705;27;20038;-73
2023/04/16 05:09:01;;;;;;;52.65;31.60;;;;;;;13.38;100.00;98738.00;5117773;27;20117;-72
2023/04/16 05:11:27;;;;;;;70.50;47.50;;;;;;;13.78;100.00;98802.84;5115497;27;20054;-73
2023/04/16 05:13:52;;;;;;;37.17;23.48;;;;;;;13.32;100.00;98758.78;5133983;27;20515;-74
2023/04/16 05:16:17;;;;;;;45.08;22.88;;;;;;;13.57;100.00;98835.56;5115410;27;20031;-74
2023/04/16 05:18:43;;;;;;;38.53;18.27;;;;;;;13.59;100.00;98832.91;5133958;27;20224;-73
2023/04/16 05:21:08;;;;;;;35.45;19.05;;;;;;;13.38;100.00;98783.97;5133382;27;20054;-74
2023/04/16 05:23:34;;;;;;;37.83;19.02;;;;;;;13.15;100.00;98792.13;5115754;27;20031;-74
2023/04/16 05:25:59;;;;;;;46.28;20.08;;;;;;;13.56;100.00;98864.59;5134140;27;20058;-75
2023/04/16 05:28:24;;;;;;;37.80;19.52;;;;;;;13.63;100.00;98876.06;5115484;27;20023;-74
2023/04/16 05:30:50;;;;;;;39.55;18.95;;;;;;;13.71;100.00;98881.56;5119363;27;21601;-74
2023/04/16 05:33:16;;;;;;;38.92;19.88;;;;;;;13.56;100.00;98869.69;5115270;27;20063;-73
2023/04/16 05:35:41;;;;;;;36.63;19.45;;;;;;;13.80;100.00;98901.47;5130996;27;20045;-73
2023/04/16 05:38:07;;;;;;;42.30;21.08;;;;;;;13.65;100.00;98874.25;5131275;27;20036;-74
2023/04/16 05:40:32;;;;;;;28.45;16.23;;;;;;;13.85;100.00;98845.81;5114335;27;20019;-74
2023/04/16 05:42:57;;;;;;;39.38;19.05;;;;;;;14.01;100.00;98909.59;5127160;27;20106;-76
2023/04/16 05:45:23;;;;;;;34.60;18.85;;;;;;;13.92;100.00;98922.94;5108988;27;20633;-75
2023/04/16 05:47:48;;;;;;;33.75;17.85;;;;;;;13.59;100.00;98854.19;5113941;27;20064;-76
2023/04/16 05:50:14;;;;;;;36.20;19.15;;;;;;;13.94;100.00;98924.47;5132294;27;20031;-75
2023/04/16 05:52:39;;;;;;;40.45;19.63;;;;;;;14.11;100.00;98931.16;5133763;27;20019;-74
2023/04/16 05:55:06;;;;;;;34.97;18.55;;;;;;;14.15;100.00;98929.22;5113204;27;20050;-75
2023/04/16 05:57:32;;;;;;;36.05;18.73;;;;;;;14.12;100.00;98942.19;5101729;27;20035;-74
2023/04/16 05:59:57;;;;;;;71.63;46.13;;;;;;;14.23;100.00;98952.59;5095943;27;20041;-73
2023/04/16 06:02:23;;;;;;;34.30;19.70;;;;;;;13.92;100.00;98907.59;5129702;27;20027;-75
2023/04/16 06:04:48;;;;;;;40.58;20.90;;;;;;;14.03;100.00;98909.50;5122035;27;20088;-73
2023/04/16 06:07:14;;;;;;;35.20;19.55;;;;;;;14.52;100.00;98933.78;5114536;27;20087;-76
2023/04/16 06:09:39;;;;;;;39.00;18.98;;;;;;;14.58;100.00;98872.03;5133156;27;20034;-74
2023/04/16 06:12:05;;;;;;;33.90;17.65;;;;;;;14.80;100.00;98866.44;5130942;27;20037;-74
2023/04/16 06:14:30;;;;;;;34.22;16.77;;;;;;;15.15;100.00;98927.25;5127102;27;20038;-73
2023/04/16 06:16:56;;;;;;;35.15;16.35;;;;;;;14.98;100.00;98919.81;5130189;27;20038;-74
2023/04/16 06:19:21;;;;;;;32.40;17.02;;;;;;;14.87;100.00;98919.69;5114676;27;20062;-74
2023/04/16 06:21:46;;;;;;;32.35;16.48;;;;;;;14.99;100.00;98857.50;5117187;27;20027;-74
2023/04/16 06:24:12;;;;;;;28.98;17.38;;;;;;;15.32;100.00;98898.84;4773504;27;9999658;-73
2023/04/16 06:26:38;;;;;;;29.42;16.95;;;;;;;15.81;100.00;98867.44;5112500;27;20084;-72
2023/04/16 06:29:03;;;;;;;32.17;15.65;;;;;;;15.87;100.00;98805.50;5102635;27;20098;-74
2023/04/16 06:31:29;;;;;;;32.38;15.73;;;;;;;15.30;100.00;98843.50;5118500;27;20062;-74
2023/04/16 06:33:55;;;;;;;29.42;15.23;;;;;;;15.42;100.00;98896.53;5110432;27;20041;-73
2023/04/16 06:36:21;;;;;;;27.40;15.23;;;;;;;15.40;100.00;98881.22;5110389;27;20031;-73
2023/04/16 06:38:46;;;;;;;28.90;14.98;;;;;;;15.91;100.00;98871.03;5129921;27;20047;-74
2023/04/16 06:41:13;;;;;;;30.05;14.57;;;;;;;15.54;100.00;98824.81;5111289;27;20121;-74
2023/04/16 06:43:38;;;;;;;30.48;15.55;;;;;;;16.02;100.00;98876.28;5130227;27;20031;-75
2023/04/16 06:46:04;;;;;;;28.00;14.77;;;;;;;15.93;100.00;98877.69;5128987;27;20519;-72
2023/04/16 06:48:29;;;;;;;31.05;14.95;;;;;;;16.03;100.00;98876.16;5110041;27;20784;-73
2023/04/16 06:50:55;;;;;;;32.42;15.07;;;;;;;16.48;100.00;98851.63;5107717;27;20139;-75
2023/04/16 06:53:20;;;;;;;32.38;16.58;;;;;;;16.33;100.00;98802.25;5109350;27;20180;-75
2023/04/16 06:55:46;;;;;;;29.55;15.10;;;;;;;16.27;100.00;98876.22;5128550;27;20031;-74
2023/04/16 06:58:11;;;;;;;26.17;14.77;;;;;;;16.00;100.00;98873.00;5110335;28;20518;-75
2023/04/16 07:00:36;;;;;;;26.80;14.40;;;;;;;16.42;100.00;98868.28;5128363;27;20031;-76
2023/04/16 07:03:02;;;;;;;32.50;14.63;;;;;;;16.11;100.00;98867.94;5126709;27;20064;-75
2023/04/16 07:05:27;;;;;;;23.35;14.45;;;;;;;16.15;100.00;98882.19;5128822;27;20057;-76
2023/04/16 07:07:55;;;;;;;28.20;15.35;;;;;;;16.17;100.00;98895.72;5111462;28;20396;-76
2023/04/16 07:10:20;;;;;;;25.60;14.40;;;;;;;15.38;100.00;98798.56;5110380;28;20039;-75
2023/04/16 07:12:46;;;;;;;30.77;14.70;;;;;;;16.19;100.00;98894.72;5109100;28;20034;-75
2023/04/16 07:15:11;;;;;;;39.17;23.15;;;;;;;16.53;100.00;98866.75;5111263;28;20030;-75
2023/04/16 07:17:37;;;;;;;33.03;18.90;;;;;;;16.77;100.00;98865.03;5110457;28;20059;-73
2023/04/16 07:20:02;;;;;;;25.27;13.45;;;;;;;17.28;100.00;98828.69;5128131;28;20031;-75
2023/04/16 07:22:28;;;;;;;27.85;14.07;;;;;;;16.79;100.00;98787.00;5110773;28;20413;-75
2023/04/16 07:24:53;;;;;;;27.98;13.60;;;;;;;16.84;100.00;98855.94;5125668;27;20311;-74
2023/04/16 07:27:18;;;;;;;26.73;13.95;;;;;;;16.43;100.00;98884.50;5111703;28;20110;-75
2023/04/16 07:29:44;;;;;;;29.33;14.40;;;;;;;16.42;100.00;98875.16;5128121;28;20083;-76
2023/04/16 07:32:10;;;;;;;27.05;15.07;;;;;;;16.60;100.00;98817.44;5128514;27;20341;-76
2023/04/16 07:34:36;;;;;;;28.42;15.40;;;;;;;16.65;100.00;98874.41;5127884;28;20630;-76
2023/04/16 07:37:01;;;;;;;27.67;16.30;;;;;;;16.73;100.00;98873.88;5113727;27;20106;-75
2023/04/16 07:39:27;;;;;;;25.58;15.02;;;;;;;16.76;100.00;98812.88;5103035;28;20033;-77
2023/04/16 07:41:52;;;;;;;23.58;13.80;;;;;;;17.50;100.00;98845.13;5126230;27;20027;-77
2023/04/16 07:44:17;;;;;;;25.63;14.25;;;;;;;18.09;100.00;98829.38;5129230;28;20042;-74
2023/04/16 07:46:43;;;;;;;24.73;13.15;;;;;;;18.20;100.00;98816.47;5108908;28;20032;-76
2023/04/16 07:49:08;;;;;;;22.88;12.88;;;;;;;17.75;100.00;98778.06;5116969;28;20028;-76
2023/04/16 07:51:34;;;;;;;23.40;12.77;;;;;;;18.76;100.00;98806.06;5111633;28;20031;-77
2023/04/16 07:53:59;;;;;;;22.83;13.13;;;;;;;19.23;100.00;98787.59;5109357;28;20035;-78
2023/04/16 07:56:25;;;;;;;24.00;13.50;;;;;;;18.35;100.00;98760.44;5110454;28;20527;-78
2023/04/16 07:58:50;;;;;;;24.35;14.02;;;;;;;18.50;100.00;98815.88;5118699;27;20519;-77
2023/04/16 08:01:16;;;;;;;21.80;10.85;;;;;;;18.54;100.00;98834.50;5123953;27;20032;-77
2023/04/16 08:03:41;;;;;;;22.17;11.02;;;;;;;18.97;100.00;98751.09;5103500;28;20038;-78
2023/04/16 08:06:07;;;;;;;22.70;11.02;;;;;;;19.29;100.00;98799.97;5104870;28;20066;-79
2023/04/16 08:08:33;;;;;;;22.92;12.10;;;;;;;18.81;100.00;98809.94;5108898;27;20087;-78
2023/04/16 08:10:59;;;;;;;109.70;79.50;;;;;;;19.40;100.00;98774.16;5116279;28;20031;-78
2023/04/16 08:13:24;;;;;;;25.13;13.30;;;;;;;19.16;100.00;98844.91;5140877;27;20794;-77
2023/04/16 08:15:50;;;;;;;21.60;10.65;;;;;;;18.88;100.00;98875.47;5123206;27;20031;-76
2023/04/16 08:18:15;;;;;;;23.95;11.10;;;;;;;18.89;100.00;98892.56;5101112;28;20031;-79
2023/04/16 08:20:41;;;;;;;23.17;10.75;;;;;;;18.02;100.00;98935.44;5124751;27;20073;-75
2023/04/16 08:23:07;;;;;;;20.95;10.82;;;;;;;18.54;100.00;98912.50;5130295;27;20042;-77
2023/04/16 08:25:34;;;;;;;22.48;11.63;;;;;;;17.75;100.00;98873.19;5135463;27;20405;-78
2023/04/16 08:27:59;;;;;;;27.27;13.30;;;;;;;18.11;100.00;98878.13;5133889;27;20619;-81
2023/04/16 08:30:25;;;;;;;18.33;12.02;;;;;;;18.02;100.00;98896.84;5121928;27;20114;-77
2023/04/16 08:32:50;;;;;;;24.02;13.27;;;;;;;18.01;100.00;98946.63;5128320;27;20126;-77
2023/04/16 08:35:16;;;;;;;25.90;13.70;;;;;;;17.73;100.00;98909.31;5132904;27;20039;-79
2023/04/16 08:37:42;;;;;;;20.20;11.93;;;;;;;17.69;100.00;98915.59;5132961;27;20031;-76
2023/04/16 08:40:08;;;;;;;21.60;12.75;;;;;;;18.14;100.00;98948.16;5135459;27;20106;-79
2023/04/16 08:42:39;;;;;;;28.52;13.73;;;;;;;17.67;100.00;98988.66;5120340;27;20130;-79
2023/04/16 08:45:17;;;;;;;24.33;14.18;;;;;;;18.10;100.00;98979.41;5134843;27;20071;-77
2023/04/16 08:47:47;;;;;;;24.02;13.35;;;;;;;17.77;100.00;98954.41;5126599;27;20046;-79
2023/04/16 08:50:15;;;;;;;24.33;13.60;;;;;;;17.69;100.00;98941.31;5119035;27;20035;-74
2023/04/16 08:52:52;;;;;;;24.42;15.35;;;;;;;18.01;100.00;98965.47;5146249;27;20114;-78
2023/04/16 08:55:22;;;;;;;32.15;15.00;;;;;;;18.08;100.00;98968.41;5130354;27;20082;-76
2023/04/16 08:57:53;;;;;;;24.88;11.68;;;;;;;17.64;100.00;98934.88;5112087;28;20391;-78
2023/04/16 09:00:19;;;;;;;23.97;12.83;;;;;;;17.80;100.00;98985.06;5099666;27;20027;-76
2023/04/16 09:02:45;;;;;;;19.65;9.75;;;;;;;17.95;100.00;98985.66;5131409;27;20592;-72
2023/04/16 09:05:15;;;;;;;16.67;8.15;;;;;;;17.17;100.00;98959.66;5112192;27;20073;-73
2023/04/16 09:07:42;;;;;;;22.77;10.30;;;;;;;17.63;100.00;99008.59;5121181;27;20027;-71
2023/04/16 09:10:09;;;;;;;18.50;8.63;;;;;;;17.80;100.00;99004.81;5130518;27;20039;-71
2023/04/16 09:12:35;;;;;;;16.15;7.32;;;;;;;17.56;100.00;99017.69;5112893;27;20405;-72
2023/04/16 09:15:02;;;;;;;11.15;6.13;;;;;;;17.65;100.00;99027.31;5129817;27;20046;-73
2023/04/16 09:17:28;;;;;;;13.40;5.43;;;;;;;16.99;100.00;98948.13;5113029;27;20027;-72
2023/04/16 09:19:53;;;;;;;11.73;5.82;;;;;;;17.53;100.00;99029.94;5130274;27;20045;-71
2023/04/16 09:22:20;;;;;;;12.52;4.70;;;;;;;17.98;100.00;99045.44;5130514;27;20046;-76
2023/04/16 09:24:45;;;;;;;10.90;4.75;;;;;;;18.08;100.00;99055.88;5117542;27;20036;-74
2023/04/16 09:27:11;;;;;;;9.65;4.47;;;;;;;18.07;100.00;99064.50;5127263;27;20046;-75
2023/04/16 09:29:39;;;;;;;10.65;4.95;;;;;;;17.56;100.00;99083.69;5127863;27;20106;-75
2023/04/16 09:32:11;;;;;;;11.27;5.00;;;;;;;17.53;100.00;99051.31;5109439;27;20035;-79
2023/04/16 09:34:54;;;;;;;10.65;4.90;;;;;;;17.69;100.00;99111.00;5120072;27;20038;-78
2023/04/16 09:37:20;;;;;;;12.77;5.70;;;;;;;18.16;100.00;99094.72;5110641;27;20104;-76
2023/04/16 09:39:53;;;;;;;11.20;5.30;;;;;;;17.46;100.00;99101.50;5122195;27;20038;-76
2023/04/16 09:42:24;;;;;;;13.60;7.28;;;;;;;17.55;100.00;99131.69;5129229;27;20031;-78
2023/04/16 09:44:51;;;;;;;15.27;7.72;;;;;;;17.46;100.00;99080.09;5107298;27;20077;-77
2023/04/16 09:47:16;;;;;;;19.77;7.60;;;;;;;17.43;100.00;99093.19;5132219;27;20027;-81
2023/04/16 09:49:42;;;;;;;21.20;9.07;;;;;;;16.99;100.00;99097.06;5113355;27;20071;-77
2023/04/16 09:52:13;;;;;;;13.82;7.53;;;;;;;16.27;100.00;99095.06;5131300;27;20035;-78
2023/04/16 09:54:45;;;;;;;14.53;7.97;;;;;;;16.50;100.00;99146.66;5131945;27;20045;-76
2023/04/16 09:57:11;;;;;;;15.57;8.25;;;;;;;15.97;100.00;99091.09;5114230;27;20035;-77
2023/04/16 09:59:36;;;;;;;15.45;7.90;;;;;;;16.27;100.00;99137.84;5131829;27;20035;-76
2023/04/16 10:02:02;;;;;;;14.40;8.20;;;;;;;16.34;100.00;99128.84;5112591;27;20102;-75
2023/04/16 10:04:28;;;;;;;18.23;9.50;;;;;;;16.49;100.00;99107.34;5113339;27;20047;-78
2023/04/16 10:07:03;;;;;;;18.45;9.52;;;;;;;16.58;100.00;99099.03;5130724;27;20035;-79
2023/04/16 10:09:37;;;;;;;13.43;8.73;;;;;;;16.71;100.00;99102.44;5092383;28;20032;-75
2023/04/16 10:12:02;;;;;;;11.90;7.03;;;;;;;16.90;100.00;99099.44;5092760;28;20030;-75
2023/04/16 10:14:28;;;;;;;14.48;8.05;;;;;;;16.72;100.00;99116.88;5130772;27;20034;-77
2023/04/16 10:16:54;;;;;;;11.70;6.82;;;;;;;16.40;100.00;99065.13;5129971;27;20026;-76
2023/04/16 10:19:20;;;;;;;12.55;6.72;;;;;;;16.87;100.00;99120.19;5127416;27;20031;-76
2023/04/16 10:21:47;;;;;;;11.48;6.72;;;;;;;16.81;100.00;99118.03;5110714;28;20042;-76
2023/04/16 10:24:15;;;;;;;15.00;7.70;;;;;;;16.82;100.00;99064.00;5091873;28;20039;-75
2023/04/16 10:26:41;;;;;;;13.38;8.15;;;;;;;16.44;100.00;99060.59;5092084;28;20035;-74
2023/04/16 10:29:07;;;;;;;157.30;122.75;;;;;;;17.14;100.00;99096.00;5107903;27;20497;-75
2023/04/16 10:31:35;;;;;;;15.13;9.52;;;;;;;16.93;100.00;99082.09;5130057;27;20039;-77
2023/04/16 10:34:01;;;;;;;11.75;7.75;;;;;;;16.80;100.00;99088.13;5112883;27;20019;-74
2023/04/16 10:36:27;;;;;;;15.10;8.00;;;;;;;16.80;100.00;99070.16;5128659;27;20504;-75
2023/04/16 10:38:57;;;;;;;13.32;6.70;;;;;;;16.26;100.00;99062.63;5129557;27;20027;-76
2023/04/16 10:41:25;;;;;;;12.30;5.88;;;;;;;16.27;100.00;99123.28;5130227;27;20031;-76
2023/04/16 10:43:51;;;;;;;10.20;5.30;;;;;;;15.72;100.00;99063.66;5111953;27;20034;-76
2023/04/16 10:46:31;;;;;;;13.45;6.28;;;;;;;16.19;100.00;99102.44;5129598;27;20050;-76
2023/04/16 10:49:11;;;;;;;12.35;6.28;;;;;;;16.27;100.00;99064.28;5111769;27;20118;-76
2023/04/16 10:51:36;;;;;;;9.48;5.88;;;;;;;16.44;100.00;99084.50;5130279;27;20469;-72
2023/04/16 10:54:11;;;;;;;14.52;6.13;;;;;;;16.30;100.00;99112.00;5111842;27;20054;-75
2023/04/16 10:56:37;;;;;;;15.93;11.40;;;;;;;16.37;100.00;99085.84;5140735;27;20031;-75
2023/04/16 10:59:06;;;;;;;11.15;5.47;;;;;;;16.37;100.00;99092.72;5124979;27;20038;-74
2023/04/16 11:01:41;;;;;;;11.05;5.57;;;;;;;16.45;100.00;99100.72;5129184;27;20034;-77
2023/04/16 11:04:19;;;;;;;9.10;5.60;;;;;;;16.24;100.00;99109.84;5110492;28;20035;-77
2023/04/16 11:07:14;;;;;;;13.93;6.10;;;;;;;15.40;100.00;99132.25;5110509;28;20084;-78